createdAt,value
2023-05-21T00:02:12.079Z,63.75
2023-05-21T00:04:44.011Z,63.65
2023-05-21T00:07:13.018Z,63.51
2023-05-21T00:09:41.529Z,63.59
2023-05-21T00:12:10.271Z,63.55
2023-05-21T00:14:38.549Z,63.72
2023-05-21T00:17:07.197Z,63.67
2023-05-21T00:19:36.118Z,63.62
2023-05-21T00:22:04.820Z,63.52
2023-05-21T00:24:33.210Z,63.52
2023-05-21T00:27:01.829Z,63.50
2023-05-21T00:29:30.337Z,63.48
2023-05-21T00:31:59.105Z,63.56
2023-05-21T00:34:27.540Z,63.48
2023-05-21T00:36:56.118Z,63.42
2023-05-21T00:39:25.494Z,63.52
2023-05-21T00:41:57.171Z,63.53
2023-05-21T00:44:25.733Z,63.58
2023-05-21T00:46:54.355Z,63.40
2023-05-21T00:49:26.121Z,63.53
2023-05-21T00:51:55.114Z,63.31
2023-05-21T00:54:23.996Z,63.39
2023-05-21T00:56:52.654Z,63.54
2023-05-21T00:59:20.990Z,63.61
2023-05-21T01:01:56.184Z,63.56
2023-05-21T01:04:24.645Z,63.71
2023-05-21T01:06:53.715Z,63.49
2023-05-21T01:09:22.116Z,63.66
2023-05-21T01:11:51.297Z,63.61
2023-05-21T01:14:19.969Z,63.52
2023-05-21T01:16:49.906Z,63.73
2023-05-21T01:19:23.817Z,63.72
2023-05-21T01:21:56.912Z,63.51
2023-05-21T01:24:25.297Z,63.62
2023-05-21T01:26:54.003Z,63.70
2023-05-21T01:29:22.530Z,63.89
2023-05-21T01:32:18.791Z,63.67
2023-05-21T01:35:10.560Z,63.72
2023-05-21T01:37:52.293Z,63.69
2023-05-21T01:40:31.426Z,64.21
2023-05-21T01:43:00.478Z,63.77
2023-05-21T01:45:30.017Z,63.96
2023-05-21T01:47:58.850Z,64.04
2023-05-21T01:55:28.560Z,64.14
2023-05-21T01:57:57.064Z,64.62
2023-05-21T02:00:31.102Z,64.28
2023-05-21T02:03:00.008Z,64.37
2023-05-21T02:05:28.795Z,64.59
2023-05-21T02:08:00.209Z,64.37
2023-05-21T02:10:28.924Z,64.40
2023-05-21T02:12:57.277Z,64.35
2023-05-21T02:15:26.254Z,64.06
2023-05-21T02:17:55.921Z,64.10
2023-05-21T02:20:24.846Z,64.20
2023-05-21T02:22:53.157Z,64.32
2023-05-21T02:25:21.794Z,64.46
2023-05-21T02:27:54.065Z,64.28
2023-05-21T02:30:22.798Z,64.46
2023-05-21T02:32:51.085Z,64.47
2023-05-21T02:35:20.025Z,64.33
2023-05-21T02:37:49.295Z,64.18
2023-05-21T02:40:17.988Z,63.96
2023-05-21T02:42:46.251Z,64.34
2023-05-21T02:45:20.535Z,64.05
2023-05-21T02:47:49.321Z,64.18
2023-05-21T02:50:22.601Z,64.22
2023-05-21T02:53:00.142Z,64.29
2023-05-21T02:55:29.559Z,64.27
2023-05-21T02:57:57.908Z,64.15
2023-05-21T03:00:26.545Z,63.93
2023-05-21T03:02:54.946Z,64.15
2023-05-21T03:05:24.577Z,64.17
2023-05-21T03:07:53.735Z,64.29
2023-05-21T03:10:25.925Z,64.09
2023-05-21T03:12:55.080Z,64.04
2023-05-21T03:15:24.522Z,64.24
2023-05-21T03:17:54.608Z,64.14
2023-05-21T03:20:25.708Z,64.06
2023-05-21T03:22:55.271Z,64.31
2023-05-21T03:25:25.471Z,64.07
2023-05-21T03:27:55.837Z,64.20
2023-05-21T03:30:46.689Z,64.40
2023-05-21T03:33:38.242Z,64.27
2023-05-21T03:36:21.821Z,64.12
2023-05-21T03:38:50.231Z,64.37
2023-05-21T03:41:19.194Z,64.18
2023-05-21T03:43:52.158Z,64.11
2023-05-21T03:46:23.610Z,64.23
2023-05-21T03:49:08.322Z,64.36
2023-05-21T03:51:39.807Z,64.31
2023-05-21T03:54:10.000Z,64.44
2023-05-21T03:56:39.835Z,64.32
2023-05-21T03:59:08.082Z,64.40
2023-05-21T04:01:37.305Z,64.09
2023-05-21T04:04:06.398Z,64.24
2023-05-21T04:06:35.283Z,64.23
2023-05-21T04:09:03.767Z,64.32
2023-05-21T04:11:32.460Z,64.37
2023-05-21T04:14:01.455Z,64.15
2023-05-21T04:16:31.381Z,64.22
2023-05-21T04:18:59.852Z,64.00
2023-05-21T04:21:29.592Z,64.18
2023-05-21T04:24:01.266Z,64.09
2023-05-21T04:26:52.840Z,64.02
2023-05-21T04:29:21.601Z,64.25
2023-05-21T04:31:51.986Z,63.89
2023-05-21T04:34:20.372Z,64.13
2023-05-21T04:36:50.060Z,64.03
2023-05-21T04:39:18.438Z,64.00
2023-05-21T04:41:47.170Z,63.97
2023-05-21T04:44:16.909Z,64.03
2023-05-21T04:46:49.307Z,63.80
2023-05-21T04:49:21.230Z,63.91
2023-05-21T04:51:49.852Z,63.95
2023-05-21T04:54:18.177Z,63.78
2023-05-21T04:56:47.639Z,63.59
2023-05-21T04:59:17.019Z,63.63
2023-05-21T05:01:45.660Z,63.84
2023-05-21T05:04:14.012Z,63.80
2023-05-21T05:06:42.963Z,63.73
2023-05-21T05:09:11.510Z,63.81
2023-05-21T05:11:40.071Z,63.82
2023-05-21T05:14:08.400Z,63.60
2023-05-21T05:16:37.186Z,63.78
2023-05-21T05:19:05.625Z,63.62
2023-05-21T05:21:34.839Z,63.64
2023-05-21T05:24:03.271Z,63.74
2023-05-21T05:26:33.820Z,63.52
2023-05-21T05:29:02.242Z,63.57
2023-05-21T05:31:31.353Z,63.54
2023-05-21T05:33:59.961Z,63.73
2023-05-21T05:36:28.641Z,63.82
2023-05-21T05:38:57.225Z,63.82
2023-05-21T05:41:27.391Z,63.77
2023-05-21T05:43:57.420Z,63.93
2023-05-21T05:46:29.863Z,63.78
2023-05-21T05:48:58.432Z,64.13
2023-05-21T05:51:27.030Z,63.52
2023-05-21T05:53:55.652Z,63.88
2023-05-21T05:56:24.411Z,63.81
2023-05-21T05:58:52.838Z,63.43
2023-05-21T06:01:24.852Z,63.46
2023-05-21T06:03:53.786Z,63.63
2023-05-21T06:06:22.553Z,63.53
2023-05-21T06:08:51.096Z,63.87
2023-05-21T06:11:21.764Z,63.94
2023-05-21T06:13:50.145Z,63.57
2023-05-21T06:16:20.194Z,63.93
2023-05-21T06:18:48.627Z,63.61
2023-05-21T06:21:17.599Z,63.64
2023-05-21T06:23:47.259Z,64.01
2023-05-21T06:26:19.484Z,64.13
2023-05-21T06:28:50.318Z,63.92
2023-05-21T06:31:22.632Z,64.00
2023-05-21T06:33:51.453Z,64.04
2023-05-21T06:36:20.592Z,64.08
2023-05-21T06:38:49.729Z,64.08
2023-05-21T06:41:18.411Z,64.06
2023-05-21T06:43:56.981Z,64.21
2023-05-21T06:46:44.302Z,64.27
2023-05-21T06:49:14.450Z,64.02
2023-05-21T06:51:44.836Z,63.84
2023-05-21T06:54:14.707Z,63.75
2023-05-21T06:56:44.027Z,63.68
2023-05-21T06:59:12.731Z,63.80
2023-05-21T07:01:42.763Z,63.71
2023-05-21T07:04:11.624Z,63.71
2023-05-21T07:06:42.304Z,63.40
2023-05-21T07:09:10.807Z,63.78
2023-05-21T07:11:40.507Z,64.02
2023-05-21T07:14:10.228Z,63.58
2023-05-21T07:16:40.336Z,63.00
2023-05-21T07:19:09.792Z,62.53
2023-05-21T07:21:38.652Z,62.84
2023-05-21T07:24:09.171Z,62.75
2023-05-21T07:26:41.386Z,62.72
2023-05-21T07:29:10.109Z,63.07
2023-05-21T07:31:38.876Z,62.95
2023-05-21T07:34:08.193Z,62.99
2023-05-21T07:36:37.192Z,62.76
2023-05-21T07:39:05.726Z,61.89
2023-05-21T07:41:34.712Z,61.08
2023-05-21T07:44:07.286Z,60.86
2023-05-21T07:46:40.178Z,59.63
2023-05-21T07:49:17.057Z,58.74
2023-05-21T07:51:48.195Z,58.29
2023-05-21T07:54:17.589Z,58.03
2023-05-21T07:56:46.936Z,61.07
2023-05-21T07:59:29.567Z,61.35
2023-05-21T08:01:58.452Z,60.86
2023-05-21T08:04:27.338Z,60.80
2023-05-21T08:06:56.643Z,60.97
2023-05-21T08:09:25.785Z,60.45
2023-05-21T08:11:54.515Z,60.04
2023-05-21T08:14:22.961Z,60.35
2023-05-21T08:16:52.693Z,60.34
2023-05-21T08:19:21.350Z,60.38
2023-05-21T08:21:52.763Z,59.96
2023-05-21T08:24:23.821Z,59.99
2023-05-21T08:26:53.415Z,59.29
2023-05-21T08:29:22.071Z,59.98
2023-05-21T08:31:51.037Z,58.79
2023-05-21T08:34:19.919Z,59.17
2023-05-21T08:36:57.411Z,59.22
2023-05-21T08:39:44.422Z,59.51
2023-05-21T08:42:40.793Z,59.34
2023-05-21T08:45:12.618Z,58.70
2023-05-21T08:47:44.901Z,57.45
2023-05-21T08:50:19.870Z,54.44
2023-05-21T08:52:50.796Z,53.18
2023-05-21T08:55:19.317Z,53.24
2023-05-21T08:57:48.329Z,52.51
2023-05-21T09:00:21.427Z,51.34
2023-05-21T09:02:51.306Z,51.21
2023-05-21T09:05:20.879Z,51.41
2023-05-21T09:08:07.163Z,50.37
2023-05-21T09:10:51.644Z,49.90
2023-05-21T09:13:23.148Z,49.76
2023-05-21T09:15:52.509Z,50.06
2023-05-21T09:18:22.674Z,49.03
2023-05-21T09:21:26.813Z,48.36
2023-05-21T09:24:00.154Z,48.92
2023-05-21T09:26:28.679Z,47.90
2023-05-21T09:29:01.761Z,46.96
2023-05-21T09:31:30.427Z,46.71
2023-05-21T09:33:59.369Z,47.30
2023-05-21T09:36:29.895Z,47.70
2023-05-21T09:39:00.372Z,47.52
2023-05-21T09:41:33.930Z,46.78
2023-05-21T09:44:02.923Z,46.44
2023-05-21T09:46:40.837Z,46.67
2023-05-21T09:49:26.594Z,46.86
2023-05-21T09:51:59.013Z,46.87
2023-05-21T09:54:33.499Z,46.30
2023-05-21T09:57:04.863Z,46.04
2023-05-21T09:59:39.583Z,46.12
2023-05-21T10:02:22.161Z,46.61
2023-05-21T10:04:52.005Z,46.70
2023-05-21T10:07:26.127Z,46.79
2023-05-21T10:09:58.472Z,46.49
2023-05-21T10:12:29.749Z,46.21
2023-05-21T10:15:04.048Z,46.35
2023-05-21T10:17:32.362Z,46.56
2023-05-21T10:20:01.841Z,45.97
2023-05-21T10:22:30.140Z,46.32
2023-05-21T10:24:58.814Z,46.28
2023-05-21T10:27:28.434Z,46.28
2023-05-21T10:29:59.562Z,46.57
2023-05-21T10:32:28.188Z,46.28
2023-05-21T10:34:59.326Z,46.34
2023-05-21T10:37:29.487Z,46.44
2023-05-21T10:39:58.483Z,46.80
2023-05-21T10:42:32.855Z,46.96
2023-05-21T10:45:26.055Z,46.97
2023-05-21T10:48:06.847Z,47.32
2023-05-21T10:50:54.204Z,46.69
2023-05-21T10:53:31.576Z,45.72
2023-05-21T10:56:31.063Z,44.95
2023-05-21T10:59:12.714Z,42.81
2023-05-21T11:01:41.954Z,42.56
2023-05-21T11:04:12.422Z,43.45
2023-05-21T11:06:41.279Z,44.58
2023-05-21T11:09:16.202Z,44.45
2023-05-21T11:11:52.501Z,44.71
2023-05-21T11:14:28.809Z,44.16
2023-05-21T11:16:58.837Z,44.02
2023-05-21T11:19:38.476Z,43.97
2023-05-21T11:22:09.545Z,43.92
2023-05-21T11:24:41.856Z,43.63
2023-05-21T11:27:12.662Z,43.16
2023-05-21T11:29:44.792Z,42.26
2023-05-21T11:32:15.849Z,42.32
2023-05-21T11:34:48.564Z,42.10
2023-05-21T11:37:23.584Z,42.46
2023-05-21T11:39:52.485Z,41.86
2023-05-21T11:42:34.070Z,42.34
2023-05-21T11:45:04.372Z,42.51
2023-05-21T11:47:33.622Z,42.67
2023-05-21T11:50:03.484Z,42.11
2023-05-21T11:52:33.339Z,42.19
2023-05-21T11:55:02.157Z,42.49
2023-05-21T11:57:31.444Z,43.01
2023-05-21T12:00:01.744Z,40.98
2023-05-21T12:02:34.582Z,41.58
2023-05-21T12:05:03.543Z,42.04
2023-05-21T12:07:32.705Z,42.75
2023-05-21T12:10:01.545Z,43.24
2023-05-21T12:12:42.224Z,43.67
2023-05-21T12:15:20.895Z,43.36
2023-05-21T12:17:53.367Z,43.07
2023-05-21T12:20:22.296Z,43.08
2023-05-21T12:22:51.546Z,43.70
2023-05-21T12:25:21.366Z,43.85
2023-05-21T12:27:58.403Z,42.82
2023-05-21T12:30:27.656Z,42.92
2023-05-21T12:32:59.626Z,42.11
2023-05-21T12:35:28.575Z,39.65
2023-05-21T12:37:57.965Z,39.46
2023-05-21T12:40:39.542Z,40.15
2023-05-21T12:43:09.472Z,40.84
2023-05-21T12:45:39.634Z,40.68
2023-05-21T12:48:09.188Z,39.34
2023-05-21T12:50:41.052Z,40.90
2023-05-21T12:53:12.165Z,41.82
2023-05-21T12:55:41.321Z,41.70
2023-05-21T12:58:13.420Z,40.31
2023-05-21T13:00:44.212Z,41.32
2023-05-21T13:03:14.724Z,41.59
2023-05-21T13:05:43.672Z,41.97
2023-05-21T13:08:14.555Z,41.99
2023-05-21T13:10:43.470Z,42.27
2023-05-21T13:13:12.645Z,41.82
2023-05-21T13:15:41.621Z,41.47
2023-05-21T13:18:12.645Z,41.84
2023-05-21T13:20:41.528Z,41.70
2023-05-21T13:23:11.829Z,41.00
2023-05-21T13:25:41.149Z,40.27
2023-05-21T13:28:15.453Z,41.22
2023-05-21T13:30:44.394Z,41.94
2023-05-21T13:33:13.894Z,42.01
2023-05-21T13:35:42.654Z,42.50
2023-05-21T13:38:11.743Z,42.71
2023-05-21T13:40:40.935Z,42.40
2023-05-21T13:43:10.173Z,41.46
2023-05-21T13:45:39.196Z,40.77
2023-05-21T13:48:08.390Z,40.48
2023-05-21T13:50:37.404Z,40.92
2023-05-21T13:53:06.718Z,41.39
2023-05-21T13:55:35.527Z,41.74
2023-05-21T13:58:04.810Z,42.07
2023-05-21T14:00:33.672Z,42.12
2023-05-21T14:03:03.132Z,42.37
2023-05-21T14:05:32.068Z,42.59
2023-05-21T14:08:01.805Z,42.98
2023-05-21T14:10:30.297Z,43.08
2023-05-21T14:13:11.255Z,43.36
2023-05-21T14:15:48.866Z,43.48
2023-05-21T14:18:18.074Z,43.68
2023-05-21T14:20:46.920Z,44.03
2023-05-21T14:23:15.914Z,44.05
2023-05-21T14:25:44.577Z,43.64
2023-05-21T14:28:13.534Z,43.64
2023-05-21T14:30:42.082Z,43.71
2023-05-21T14:33:13.772Z,43.88
2023-05-21T14:35:44.473Z,43.86
2023-05-21T14:38:13.433Z,43.53
2023-05-21T14:40:42.265Z,43.64
2023-05-21T14:43:11.284Z,43.45
2023-05-21T14:45:40.108Z,43.35
2023-05-21T14:48:09.477Z,43.60
2023-05-21T14:50:41.424Z,43.47
2023-05-21T14:53:11.664Z,43.17
2023-05-21T14:55:40.618Z,42.99
2023-05-21T14:58:09.945Z,42.72
2023-05-21T15:00:39.209Z,42.90
2023-05-21T15:03:08.628Z,43.13
2023-05-21T15:05:37.698Z,43.26
2023-05-21T15:08:08.282Z,43.23
2023-05-21T15:10:36.781Z,43.02
2023-05-21T15:13:05.754Z,42.96
2023-05-21T15:15:34.197Z,42.19
2023-05-21T15:18:03.044Z,41.62
2023-05-21T15:20:31.823Z,37.68
2023-05-21T15:25:32.764Z,38.45
2023-05-21T15:28:01.446Z,38.56
2023-05-21T15:30:29.950Z,38.12
2023-05-21T15:32:58.973Z,38.13
2023-05-21T15:35:27.837Z,39.07
2023-05-21T15:37:56.859Z,39.53
2023-05-21T15:40:27.025Z,39.31
2023-05-21T15:42:56.394Z,38.46
2023-05-21T15:45:25.309Z,38.50
2023-05-21T15:47:54.777Z,37.73
2023-05-21T15:50:23.511Z,37.81
2023-05-21T15:52:53.526Z,37.03
2023-05-21T15:55:22.513Z,37.52
2023-05-21T15:57:51.350Z,37.67
2023-05-21T16:00:19.968Z,37.20
2023-05-21T16:02:48.215Z,37.02
2023-05-21T16:05:17.038Z,36.90
2023-05-21T16:07:46.792Z,36.92
2023-05-21T16:10:15.999Z,37.66
2023-05-21T16:12:44.805Z,37.86
2023-05-21T16:15:13.526Z,37.39
2023-05-21T16:17:41.924Z,38.07
2023-05-21T16:20:11.407Z,38.37
2023-05-21T16:22:40.606Z,38.38
2023-05-21T16:25:09.992Z,38.99
2023-05-21T16:27:38.880Z,38.24
2023-05-21T16:30:08.498Z,38.50
2023-05-21T16:32:36.991Z,38.76
2023-05-21T16:35:07.245Z,39.18
2023-05-21T16:37:35.818Z,39.41
2023-05-21T16:40:05.133Z,39.56
2023-05-21T16:42:33.576Z,38.73
2023-05-21T16:45:02.554Z,38.79
2023-05-21T16:47:31.053Z,39.14
2023-05-21T16:50:01.412Z,38.34
2023-05-21T16:52:29.928Z,38.32
2023-05-21T16:54:58.578Z,38.36
2023-05-21T16:57:26.916Z,38.75
2023-05-21T16:59:55.756Z,39.38
2023-05-21T17:02:25.002Z,39.98
2023-05-21T17:04:53.829Z,39.89
2023-05-21T17:07:22.119Z,40.32
2023-05-21T17:09:50.748Z,40.06
2023-05-21T17:12:19.289Z,40.67
2023-05-21T17:14:48.338Z,40.84
2023-05-21T17:17:17.040Z,41.27
2023-05-21T17:19:45.871Z,41.60
2023-05-21T17:22:14.999Z,41.42
2023-05-21T17:24:43.957Z,41.95
2023-05-21T17:27:12.552Z,41.76
2023-05-21T17:29:41.702Z,41.40
2023-05-21T17:32:11.291Z,40.75
2023-05-21T17:34:40.037Z,40.62
2023-05-21T17:37:08.380Z,40.84
2023-05-21T17:39:37.094Z,41.77
2023-05-21T17:42:06.127Z,41.50
2023-05-21T17:44:34.819Z,41.89
2023-05-21T17:47:03.466Z,42.26
2023-05-21T17:49:32.349Z,41.96
2023-05-21T17:52:03.216Z,42.53
2023-05-21T17:54:32.075Z,42.57
2023-05-21T17:57:00.450Z,42.35
2023-05-21T17:59:29.281Z,42.03
2023-05-21T18:02:01.489Z,42.51
2023-05-21T18:04:30.351Z,42.22
2023-05-21T18:06:58.703Z,42.28
2023-05-21T18:09:27.444Z,42.59
2023-05-21T18:11:55.735Z,42.74
2023-05-21T18:14:24.396Z,42.72
2023-05-21T18:16:52.885Z,42.71
2023-05-21T18:19:22.140Z,43.10
2023-05-21T18:21:50.573Z,43.13
2023-05-21T18:24:19.232Z,43.35
2023-05-21T18:26:49.062Z,43.23
2023-05-21T18:29:17.704Z,43.50
2023-05-21T18:31:46.112Z,43.46
2023-05-21T18:34:17.032Z,43.88
2023-05-21T18:36:45.404Z,44.24
2023-05-21T18:39:14.293Z,44.23
2023-05-21T18:41:42.888Z,44.24
2023-05-21T18:44:12.945Z,44.50
2023-05-21T18:46:41.372Z,44.58
2023-05-21T18:49:10.416Z,44.67
2023-05-21T18:51:38.946Z,45.07
2023-05-21T18:54:08.619Z,45.26
2023-05-21T18:56:37.176Z,45.40
2023-05-21T18:59:06.075Z,45.66
2023-05-21T19:01:34.706Z,45.98
2023-05-21T19:04:04.746Z,45.92
2023-05-21T19:06:33.341Z,45.99
2023-05-21T19:09:02.856Z,46.04
2023-05-21T19:11:34.533Z,46.25
2023-05-21T19:14:03.926Z,46.39
2023-05-21T19:16:32.417Z,46.78
2023-05-21T19:19:02.346Z,47.01
2023-05-21T19:21:31.614Z,47.16
2023-05-21T19:24:01.288Z,47.25
2023-05-21T19:26:30.699Z,47.53
2023-05-21T19:29:00.323Z,47.78
2023-05-21T19:31:28.782Z,47.84
2023-05-21T19:33:58.326Z,48.13
2023-05-21T19:36:32.589Z,48.13
2023-05-21T19:39:07.796Z,48.30
2023-05-21T19:41:36.825Z,48.77
2023-05-21T19:44:05.618Z,48.67
2023-05-21T19:46:34.397Z,48.72
2023-05-21T19:49:03.304Z,49.07
2023-05-21T19:51:31.946Z,49.18
2023-05-21T19:54:00.715Z,49.25
2023-05-21T19:56:29.666Z,49.33
2023-05-21T19:58:58.505Z,49.51
2023-05-21T20:01:29.251Z,49.48
2023-05-21T20:03:58.891Z,49.42
2023-05-21T20:06:27.583Z,49.37
2023-05-21T20:08:56.577Z,49.55
2023-05-21T20:11:25.153Z,49.60
2023-05-21T20:13:54.555Z,49.66
2023-05-21T20:16:23.426Z,49.82
2023-05-21T20:18:57.206Z,49.99
2023-05-21T20:21:25.726Z,50.06
2023-05-21T20:23:54.648Z,50.04
2023-05-21T20:26:23.390Z,50.05
2023-05-21T20:28:52.126Z,50.10
2023-05-21T20:31:22.021Z,50.16
2023-05-21T20:33:52.502Z,50.05
2023-05-21T20:36:21.447Z,50.12
2023-05-21T20:38:50.613Z,49.93
2023-05-21T20:41:20.240Z,50.01
2023-05-21T20:43:49.124Z,50.06
2023-05-21T20:46:17.758Z,49.92
2023-05-21T20:48:47.483Z,50.07
2023-05-21T20:51:16.019Z,50.02
2023-05-21T20:53:44.808Z,50.09
2023-05-21T20:56:14.923Z,49.98
2023-05-21T20:58:44.161Z,49.84
2023-05-21T21:01:14.700Z,49.80
2023-05-21T21:03:46.039Z,49.69
2023-05-21T21:06:19.040Z,49.84
2023-05-21T21:08:50.414Z,49.65
2023-05-21T21:11:19.050Z,49.74
2023-05-21T21:13:48.020Z,49.96
2023-05-21T21:16:16.670Z,49.86
2023-05-21T21:18:47.213Z,49.81
2023-05-21T21:21:15.810Z,49.96
2023-05-21T21:23:44.621Z,49.84
2023-05-21T21:26:13.102Z,49.94
2023-05-21T21:28:42.014Z,49.85
2023-05-21T21:31:10.572Z,49.77
2023-05-21T21:33:39.375Z,49.73
2023-05-21T21:36:08.187Z,49.80
2023-05-21T21:38:36.984Z,49.73
2023-05-21T21:41:05.608Z,49.73
2023-05-21T21:43:34.787Z,49.55
2023-05-21T21:46:03.377Z,49.55
2023-05-21T21:48:32.272Z,49.67
2023-05-21T21:51:00.825Z,49.50
2023-05-21T21:53:29.589Z,49.49
2023-05-21T21:55:58.155Z,49.56
2023-05-21T21:58:27.040Z,49.47
2023-05-21T22:00:55.761Z,49.72
2023-05-21T22:03:24.577Z,49.71
2023-05-21T22:05:55.395Z,49.82
2023-05-21T22:08:25.753Z,49.92
2023-05-21T22:10:54.267Z,50.21
2023-05-21T22:13:23.022Z,50.21
2023-05-21T22:15:51.895Z,50.34
2023-05-21T22:18:31.927Z,50.37
2023-05-21T22:21:10.205Z,50.59
2023-05-21T22:23:39.851Z,50.47
2023-05-21T22:26:09.345Z,50.37
2023-05-21T22:28:38.396Z,50.22
2023-05-21T22:31:07.871Z,50.42
2023-05-21T22:33:36.907Z,50.29
2023-05-21T22:36:06.377Z,50.25
2023-05-21T22:38:35.189Z,50.33
2023-05-21T22:41:03.965Z,50.40
2023-05-21T22:43:34.976Z,50.51
2023-05-21T22:46:03.799Z,50.63
2023-05-21T22:48:34.709Z,50.64
2023-05-21T22:51:04.834Z,50.77
2023-05-21T22:53:33.893Z,50.83
2023-05-21T22:56:02.500Z,50.82
2023-05-21T22:58:31.343Z,50.67
2023-05-21T23:00:59.818Z,50.72
2023-05-21T23:03:28.747Z,50.72
2023-05-21T23:05:57.277Z,50.70
2023-05-21T23:08:26.385Z,50.52
2023-05-21T23:10:55.134Z,50.60
2023-05-21T23:13:24.098Z,50.38
2023-05-21T23:15:54.135Z,50.23
2023-05-21T23:18:23.161Z,50.17
2023-05-21T23:20:52.294Z,50.16
2023-05-21T23:23:21.250Z,49.98
2023-05-21T23:25:52.195Z,50.00
2023-05-21T23:28:21.508Z,49.98
2023-05-21T23:30:50.267Z,49.85
2023-05-21T23:33:19.274Z,49.56
2023-05-21T23:35:47.868Z,49.38
2023-05-21T23:38:16.949Z,49.23
2023-05-21T23:40:45.639Z,49.10
2023-05-21T23:43:14.591Z,49.49
2023-05-21T23:45:43.244Z,49.09
2023-05-21T23:48:12.274Z,49.46
2023-05-21T23:50:41.195Z,49.54
2023-05-21T23:53:10.576Z,49.60
2023-05-21T23:55:39.325Z,49.54
2023-05-21T23:58:08.222Z,49.57
